Hillcrest Circle, Indiana
Current Conditions -  °F | °C
As of 12:23 PM on Wednesday 26 Nov 2014 (Local Time) from KBMG Reporting Station
Scattered Clouds Scattered Clouds  
Wind Chill: 29°   Ceiling: Unl
Heat Index: 33°   Visibility: 10mi
Dew Point: 24°   Wind: 5mph
Humidity: 70%   Direction: 100°E
Pressure: 30.09"   Gusts: NA
Location:  38.8737°N, 86.4563°W
Report Text: KBMG 261723Z 10004KT 10SM SCT021 01/M04 A3009 RMK AO2 T00061044
Loading
Personal Weather Stations






























Interactive Weather Map New forecast layout! Learn more

10-Day Weather Forecast

Advertisements
Track Severe Weather on mobile